createdAt,value
2018-12-25T00:00:03.326Z,2.21
2018-12-25T00:02:31.560Z,2.21
2018-12-25T00:04:59.289Z,2.22
2018-12-25T00:07:27.215Z,2.10
2018-12-25T00:09:55.865Z,2.21
2018-12-25T00:12:23.663Z,2.20
2018-12-25T00:14:52.609Z,2.17
2018-12-25T00:17:21.565Z,2.15
2018-12-25T00:19:51.374Z,1.66
2018-12-25T00:22:19.401Z,2.13
2018-12-25T00:24:48.457Z,2.00
2018-12-25T00:27:16.821Z,2.12
2018-12-25T00:29:45.861Z,2.07
2018-12-25T00:32:13.786Z,2.10
2018-12-25T00:34:42.374Z,2.11
2018-12-25T00:37:12.654Z,2.11
2018-12-25T00:39:41.108Z,2.11
2018-12-25T00:42:09.863Z,2.10
2018-12-25T00:44:37.764Z,1.10
2018-12-25T00:47:06.556Z,1.96
2018-12-25T00:49:34.558Z,2.07
2018-12-25T00:52:02.694Z,2.07
2018-12-25T00:54:32.586Z,2.04
2018-12-25T00:57:03.464Z,2.06
2018-12-25T00:59:31.457Z,0.88
2018-12-25T01:01:59.496Z,2.04
2018-12-25T01:04:28.082Z,2.03
2018-12-25T01:06:57.143Z,1.99
2018-12-25T01:09:26.251Z,2.02
2018-12-25T01:11:54.610Z,0.90
2018-12-25T01:14:22.667Z,2.00
2018-12-25T01:16:50.505Z,1.98
2018-12-25T01:19:23.236Z,1.94
2018-12-25T01:21:46.868Z,1.92
2018-12-25T01:24:14.767Z,1.73
2018-12-25T01:26:43.759Z,1.87
2018-12-25T01:29:12.178Z,1.84
2018-12-25T01:31:39.922Z,1.82
2018-12-25T01:34:08.167Z,1.82
2018-12-25T01:36:36.845Z,1.83
2018-12-25T01:39:07.630Z,1.83
2018-12-25T01:41:39.158Z,1.83
2018-12-25T01:44:07.369Z,1.83
2018-12-25T01:46:35.382Z,1.85
2018-12-25T01:49:05.222Z,1.88
2018-12-25T01:51:34.188Z,0.88
2018-12-25T01:54:02.172Z,1.92
2018-12-25T01:56:30.771Z,1.70
2018-12-25T01:58:58.996Z,1.98
2018-12-25T02:01:27.663Z,1.99
2018-12-25T02:03:56.108Z,2.02
2018-12-25T02:06:23.910Z,2.03
2018-12-25T02:08:51.963Z,2.02
2018-12-25T02:11:20.338Z,2.04
2018-12-25T02:13:48.090Z,2.05
2018-12-25T02:16:16.113Z,2.07
2018-12-25T02:18:44.584Z,2.08
2018-12-25T02:21:12.634Z,2.08
2018-12-25T02:23:40.541Z,2.10
2018-12-25T02:26:08.716Z,2.11
2018-12-25T02:28:36.476Z,2.13
2018-12-25T02:31:04.751Z,2.13
2018-12-25T02:33:32.864Z,2.14
2018-12-25T02:36:01.298Z,2.16
2018-12-25T02:38:29.464Z,2.19
2018-12-25T02:40:57.827Z,2.20
2018-12-25T02:43:29.095Z,2.21
2018-12-25T02:45:57.069Z,2.22
2018-12-25T02:48:25.742Z,2.25
2018-12-25T02:50:55.237Z,2.13
2018-12-25T02:53:23.539Z,2.27
2018-12-25T02:55:51.991Z,2.28
2018-12-25T02:58:19.741Z,2.29
2018-12-25T03:00:48.150Z,2.30
2018-12-25T03:03:17.788Z,2.30
2018-12-25T03:05:45.901Z,2.31
2018-12-25T03:08:13.880Z,2.20
2018-12-25T03:10:42.372Z,2.32
2018-12-25T03:13:10.501Z,2.32
2018-12-25T03:15:38.430Z,1.92
2018-12-25T03:18:06.617Z,2.34
2018-12-25T03:20:34.573Z,0.85
2018-12-25T03:23:03.272Z,2.37
2018-12-25T03:25:32.262Z,2.36
2018-12-25T03:28:00.412Z,2.36
2018-12-25T03:30:28.369Z,2.40
2018-12-25T03:32:56.395Z,2.41
2018-12-25T03:35:24.360Z,2.42
2018-12-25T03:37:52.037Z,2.43
2018-12-25T03:40:19.955Z,2.44
2018-12-25T03:42:48.944Z,2.46
2018-12-25T03:45:17.112Z,2.45
2018-12-25T03:47:45.004Z,2.45
2018-12-25T03:50:13.008Z,2.45
2018-12-25T03:52:40.929Z,2.46
2018-12-25T03:55:08.971Z,2.47
2018-12-25T03:57:37.457Z,2.48
2018-12-25T04:00:05.545Z,2.50
2018-12-25T04:02:33.672Z,2.48
2018-12-25T04:05:03.037Z,2.53
2018-12-25T04:07:31.171Z,2.52
2018-12-25T04:09:59.585Z,2.54
2018-12-25T04:12:28.117Z,2.56
2018-12-25T04:14:56.016Z,2.57
2018-12-25T04:17:24.022Z,2.55
2018-12-25T04:19:52.560Z,2.58
2018-12-25T04:22:20.402Z,2.58
2018-12-25T04:24:48.519Z,2.60
2018-12-25T04:27:16.987Z,2.61
2018-12-25T04:29:45.235Z,2.58
2018-12-25T04:32:13.166Z,2.61
2018-12-25T04:34:43.110Z,2.62
2018-12-25T04:37:11.220Z,2.64
2018-12-25T04:39:38.918Z,2.65
2018-12-25T04:42:07.344Z,2.66
2018-12-25T04:44:35.083Z,2.53
2018-12-25T04:47:02.956Z,2.71
2018-12-25T04:49:30.869Z,2.71
2018-12-25T04:51:58.916Z,2.76
2018-12-25T04:54:26.958Z,2.78
2018-12-25T04:56:54.878Z,2.80
2018-12-25T04:59:23.644Z,2.80
2018-12-25T05:01:51.765Z,2.82
2018-12-25T05:04:19.643Z,2.83
2018-12-25T05:06:48.098Z,2.85
2018-12-25T05:09:16.014Z,2.85
2018-12-25T05:11:44.708Z,2.87
2018-12-25T05:14:14.916Z,2.87
2018-12-25T05:16:43.021Z,2.88
2018-12-25T05:19:11.368Z,2.89
2018-12-25T05:21:39.832Z,2.90
2018-12-25T05:24:07.695Z,2.91
2018-12-25T05:26:35.644Z,2.92
2018-12-25T05:31:25.718Z,2.93
2018-12-25T05:33:53.641Z,2.94
2018-12-25T05:36:21.504Z,2.97
2018-12-25T05:38:49.977Z,2.99
2018-12-25T05:41:18.035Z,2.98
2018-12-25T05:43:45.926Z,3.01
2018-12-25T05:46:14.420Z,3.03
2018-12-25T05:48:42.243Z,3.03
2018-12-25T05:51:10.079Z,3.01
2018-12-25T05:53:38.397Z,3.04
2018-12-25T05:56:06.253Z,3.04
2018-12-25T05:58:34.142Z,3.06
2018-12-25T06:01:02.644Z,3.07
2018-12-25T06:03:30.468Z,3.07
2018-12-25T06:05:58.346Z,3.08
2018-12-25T06:08:26.818Z,3.09
2018-12-25T06:10:54.685Z,3.10
2018-12-25T06:13:22.551Z,3.10
2018-12-25T06:15:51.128Z,3.12
2018-12-25T06:18:19.305Z,3.12
2018-12-25T06:20:54.912Z,3.10
2018-12-25T06:23:15.645Z,3.13
2018-12-25T06:25:43.512Z,3.11
2018-12-25T06:28:11.506Z,3.12
2018-12-25T06:30:39.801Z,3.14
2018-12-25T06:33:07.720Z,2.88
2018-12-25T06:35:35.606Z,3.15
2018-12-25T06:38:03.455Z,3.17
2018-12-25T06:40:31.527Z,3.17
2018-12-25T06:42:59.407Z,3.16
2018-12-25T06:45:27.260Z,3.16
2018-12-25T06:47:56.269Z,3.20
2018-12-25T06:50:24.488Z,3.20
2018-12-25T06:52:52.434Z,3.22
2018-12-25T06:55:20.571Z,2.85
2018-12-25T06:57:48.427Z,3.23
2018-12-25T07:00:16.351Z,3.25
2018-12-25T07:02:44.814Z,3.14
2018-12-25T07:05:12.881Z,3.25
2018-12-25T07:07:41.067Z,3.26
2018-12-25T07:10:09.008Z,3.02
2018-12-25T07:12:36.860Z,3.26
2018-12-25T07:15:06.617Z,3.26
2018-12-25T07:17:34.699Z,3.25
2018-12-25T07:20:02.955Z,3.29
2018-12-25T07:22:31.199Z,3.30
2018-12-25T07:24:59.213Z,3.30
2018-12-25T07:27:32.005Z,3.30
2018-12-25T07:30:01.672Z,2.79
2018-12-25T07:32:29.944Z,3.20
2018-12-25T07:34:57.891Z,3.32
2018-12-25T07:37:26.768Z,3.34
2018-12-25T07:39:54.652Z,3.32
2018-12-25T07:42:22.649Z,3.35
2018-12-25T07:44:51.232Z,3.23
2018-12-25T07:47:19.279Z,3.37
2018-12-25T07:49:47.061Z,3.38
2018-12-25T07:52:15.089Z,3.39
2018-12-25T07:54:43.020Z,2.80
2018-12-25T07:57:10.770Z,3.44
2018-12-25T07:59:39.386Z,3.44
2018-12-25T08:02:07.585Z,3.45
2018-12-25T08:04:36.333Z,3.47
2018-12-25T08:07:05.331Z,3.00
2018-12-25T08:09:33.699Z,3.50
2018-12-25T08:12:02.057Z,3.52
2018-12-25T08:14:30.080Z,3.55
2018-12-25T08:16:58.148Z,3.57
2018-12-25T08:19:26.281Z,3.57
2018-12-25T08:21:54.592Z,3.42
2018-12-25T08:24:22.624Z,3.58
2018-12-25T08:26:50.748Z,3.57
2018-12-25T08:29:19.370Z,3.59
2018-12-25T08:31:47.428Z,3.61
2018-12-25T08:34:16.922Z,3.64
2018-12-25T08:36:45.576Z,3.66
2018-12-25T08:39:13.919Z,2.24
2018-12-25T08:41:42.083Z,3.70
2018-12-25T08:44:10.728Z,3.69
2018-12-25T08:46:40.103Z,3.73
2018-12-25T08:49:08.570Z,3.73
2018-12-25T08:51:37.712Z,3.76
2018-12-25T08:54:07.070Z,3.75
2018-12-25T08:56:35.417Z,3.79
2018-12-25T08:59:04.160Z,3.79
2018-12-25T09:01:32.104Z,3.82
2018-12-25T09:04:00.206Z,3.84
2018-12-25T09:06:28.666Z,3.88
2018-12-25T09:08:57.596Z,3.90
2018-12-25T09:11:25.465Z,3.93
2018-12-25T09:13:53.909Z,3.97
2018-12-25T09:16:23.873Z,4.00
2018-12-25T09:18:51.613Z,4.02
2018-12-25T09:21:20.012Z,3.03
2018-12-25T09:23:48.048Z,4.06
2018-12-25T09:26:16.254Z,4.06
2018-12-25T09:28:44.782Z,3.48
2018-12-25T09:31:12.812Z,4.10
2018-12-25T09:33:40.720Z,4.09
2018-12-25T09:36:10.186Z,4.15
2018-12-25T09:38:38.645Z,4.03
2018-12-25T09:41:06.640Z,3.81
2018-12-25T09:43:35.348Z,4.21
2018-12-25T09:46:06.162Z,4.22
2018-12-25T09:48:32.528Z,4.25
2018-12-25T09:51:00.537Z,4.16
2018-12-25T09:53:28.913Z,4.31
2018-12-25T09:55:56.653Z,4.34
2018-12-25T09:58:25.064Z,4.37
2018-12-25T10:00:52.995Z,4.28
2018-12-25T10:03:21.143Z,4.40
2018-12-25T10:05:48.903Z,4.41
2018-12-25T10:08:16.681Z,4.40
2018-12-25T10:10:46.655Z,4.39
2018-12-25T10:13:15.194Z,4.40
2018-12-25T10:15:43.363Z,4.40
2018-12-25T10:18:11.513Z,3.93
2018-12-25T10:20:40.395Z,4.15
2018-12-25T10:23:08.306Z,4.37
2018-12-25T10:25:37.778Z,4.35
2018-12-25T10:28:07.534Z,4.33
2018-12-25T10:30:35.621Z,4.29
2018-12-25T10:33:03.749Z,4.29
2018-12-25T10:35:32.220Z,4.29
2018-12-25T10:38:00.192Z,4.31
2018-12-25T10:40:28.472Z,4.31
2018-12-25T10:42:56.913Z,4.33
2018-12-25T10:45:24.856Z,4.07
2018-12-25T10:47:53.898Z,4.34
2018-12-25T10:50:21.679Z,4.35
2018-12-25T10:52:50.207Z,3.25
2018-12-25T10:55:18.026Z,4.35
2018-12-25T10:57:46.043Z,4.39
2018-12-25T11:00:18.372Z,4.18
2018-12-25T11:02:46.964Z,4.44
2018-12-25T11:05:14.975Z,4.46
2018-12-25T11:07:42.857Z,4.35
2018-12-25T11:10:11.603Z,4.47
2018-12-25T11:12:39.321Z,4.45
2018-12-25T11:15:07.184Z,4.20
2018-12-25T11:17:38.900Z,4.44
2018-12-25T11:20:11.520Z,4.43
2018-12-25T11:22:37.328Z,3.34
2018-12-25T11:25:07.434Z,4.47
2018-12-25T11:27:36.809Z,4.49
2018-12-25T11:30:07.063Z,4.12
2018-12-25T11:32:35.672Z,4.49
2018-12-25T11:35:04.505Z,4.47
2018-12-25T11:37:33.102Z,4.44
2018-12-25T11:40:01.392Z,4.44
2018-12-25T11:42:29.587Z,4.44
2018-12-25T11:44:59.947Z,4.41
2018-12-25T11:47:28.556Z,4.44
2018-12-25T11:49:56.883Z,4.50
2018-12-25T11:52:28.470Z,4.55
2018-12-25T11:54:55.186Z,4.59
2018-12-25T11:57:25.428Z,3.62
2018-12-25T11:59:53.588Z,4.69
2018-12-25T12:02:22.740Z,3.85
2018-12-25T12:04:50.503Z,4.78
2018-12-25T12:07:19.049Z,4.81
2018-12-25T12:09:47.939Z,3.13
2018-12-25T12:12:15.704Z,4.80
2018-12-25T12:14:44.324Z,4.79
2018-12-25T12:17:12.685Z,4.55
2018-12-25T12:19:41.774Z,4.78
2018-12-25T12:22:09.509Z,4.76
2018-12-25T12:24:37.969Z,4.78
2018-12-25T12:27:05.726Z,4.79
2018-12-25T12:29:33.572Z,4.45
2018-12-25T12:32:02.731Z,3.41
2018-12-25T12:34:30.500Z,3.16
2018-12-25T12:36:58.349Z,4.82
2018-12-25T12:39:26.973Z,4.79
2018-12-25T12:41:54.872Z,4.80
2018-12-25T12:44:22.869Z,4.78
2018-12-25T12:46:50.979Z,4.30
2018-12-25T12:49:18.759Z,4.75
2018-12-25T12:51:47.086Z,3.55
2018-12-25T12:54:15.524Z,3.56
2018-12-25T12:56:43.555Z,4.71
2018-12-25T12:59:11.839Z,4.71
2018-12-25T13:01:39.615Z,4.68
2018-12-25T13:04:08.123Z,4.68
2018-12-25T13:06:38.014Z,3.25
2018-12-25T13:09:10.654Z,4.65
2018-12-25T13:11:38.634Z,4.65
2018-12-25T13:14:07.909Z,4.65
2018-12-25T13:16:41.339Z,4.64
2018-12-25T13:19:12.392Z,3.66
2018-12-25T13:21:42.433Z,4.25
2018-12-25T13:24:11.182Z,4.63
2018-12-25T13:26:39.663Z,4.63
2018-12-25T13:29:08.496Z,4.53
2018-12-25T13:31:37.086Z,4.66
2018-12-25T13:34:05.408Z,4.66
2018-12-25T13:36:33.601Z,4.64
2018-12-25T13:39:01.712Z,4.64
2018-12-25T13:41:29.435Z,4.63
2018-12-25T13:43:58.063Z,4.63
2018-12-25T13:46:26.099Z,4.62
2018-12-25T13:48:54.069Z,4.24
2018-12-25T13:51:22.951Z,4.63
2018-12-25T13:53:50.792Z,4.62
2018-12-25T13:56:19.243Z,4.63
2018-12-25T13:58:47.288Z,4.63
2018-12-25T14:01:15.245Z,4.64
2018-12-25T14:03:43.672Z,4.66
2018-12-25T14:06:11.731Z,4.68
2018-12-25T14:08:39.715Z,2.95
2018-12-25T14:11:07.587Z,4.70
2018-12-25T14:13:35.380Z,4.71
2018-12-25T14:16:03.777Z,4.74
2018-12-25T14:18:32.431Z,4.03
2018-12-25T14:21:00.224Z,4.76
2018-12-25T14:23:28.352Z,4.76
2018-12-25T14:25:56.298Z,4.76
2018-12-25T14:28:24.236Z,4.76
2018-12-25T14:30:52.352Z,4.75
2018-12-25T14:33:20.941Z,4.76
2018-12-25T14:35:49.191Z,3.39
2018-12-25T14:38:17.134Z,4.75
2018-12-25T14:40:45.970Z,4.75
2018-12-25T14:43:14.554Z,4.75
2018-12-25T14:45:42.480Z,4.75
2018-12-25T14:48:11.042Z,3.95
2018-12-25T14:51:12.465Z,4.74
2018-12-25T14:53:40.832Z,3.34
2018-12-25T14:56:08.697Z,4.76
2018-12-25T14:58:37.806Z,4.74
2018-12-25T15:01:05.846Z,4.47
2018-12-25T15:03:34.204Z,4.76
2018-12-25T15:06:01.958Z,4.77
2018-12-25T15:08:30.172Z,4.75
2018-12-25T15:10:58.007Z,4.75
2018-12-25T15:13:26.720Z,4.75
2018-12-25T15:15:55.797Z,4.77
2018-12-25T15:18:24.892Z,4.76
2018-12-25T15:20:53.598Z,4.53
2018-12-25T15:23:28.215Z,4.75
2018-12-25T15:25:49.680Z,4.77
2018-12-25T15:28:18.060Z,4.77
2018-12-25T15:30:46.965Z,4.79
2018-12-25T15:33:15.113Z,4.79
2018-12-25T15:35:42.934Z,4.80
2018-12-25T15:38:16.951Z,4.57
2018-12-25T15:40:49.656Z,3.78
2018-12-25T15:43:22.972Z,4.79
2018-12-25T15:45:55.054Z,4.75
2018-12-25T15:48:24.412Z,4.77
2018-12-25T15:51:05.440Z,3.66
2018-12-25T15:53:37.055Z,4.78
2018-12-25T15:56:08.690Z,4.31
2018-12-25T15:58:37.443Z,4.78
2018-12-25T16:01:09.725Z,4.78
2018-12-25T16:03:39.689Z,4.77
2018-12-25T16:06:08.241Z,4.09
2018-12-25T16:08:42.145Z,4.76
2018-12-25T16:11:13.662Z,4.78
2018-12-25T16:13:44.784Z,4.79
2018-12-25T16:16:16.345Z,4.32
2018-12-25T16:18:44.982Z,4.77
2018-12-25T16:21:14.113Z,4.77
2018-12-25T16:23:45.506Z,4.56
2018-12-25T16:29:15.742Z,4.79
2018-12-25T16:34:33.515Z,4.80
2018-12-25T16:37:01.577Z,4.79
2018-12-25T16:39:32.131Z,4.79
2018-12-25T16:42:00.122Z,4.79
2018-12-25T16:44:28.381Z,4.77
2018-12-25T16:46:56.162Z,4.77
2018-12-25T16:49:23.976Z,4.41
2018-12-25T16:51:51.943Z,4.78
2018-12-25T16:54:20.428Z,4.77
2018-12-25T16:56:48.128Z,4.77
2018-12-25T16:59:16.312Z,4.77
2018-12-25T17:01:44.237Z,4.65
2018-12-25T17:04:12.074Z,4.76
2018-12-25T17:06:40.533Z,4.77
2018-12-25T17:09:09.664Z,4.76
2018-12-25T17:11:38.416Z,4.78
2018-12-25T17:14:06.211Z,4.78
2018-12-25T17:16:34.311Z,4.77
2018-12-25T17:19:02.769Z,4.43
2018-12-25T17:21:31.538Z,4.79
2018-12-25T17:24:02.313Z,4.78
2018-12-25T17:26:27.833Z,4.78
2018-12-25T17:28:55.594Z,4.68
2018-12-25T17:31:24.406Z,4.81
2018-12-25T17:33:52.144Z,3.76
2018-12-25T17:36:21.382Z,4.79
2018-12-25T17:38:49.640Z,4.80
2018-12-25T17:41:17.719Z,4.79
2018-12-25T17:43:49.199Z,4.81
2018-12-25T17:46:18.063Z,3.38
2018-12-25T17:48:46.462Z,4.79
2018-12-25T17:51:27.174Z,3.51
2018-12-25T17:53:57.779Z,4.81
2018-12-25T17:56:28.111Z,4.80
2018-12-25T17:58:58.199Z,4.80
2018-12-25T18:01:26.748Z,4.81
2018-12-25T18:03:55.765Z,4.82
2018-12-25T18:06:25.621Z,3.54
2018-12-25T18:08:54.704Z,4.84
2018-12-25T18:11:22.604Z,4.85
2018-12-25T18:13:50.460Z,4.72
2018-12-25T18:16:22.198Z,4.85
2018-12-25T18:18:51.396Z,4.84
2018-12-25T18:21:19.351Z,4.84
2018-12-25T18:23:48.901Z,4.36
2018-12-25T18:26:16.920Z,4.52
2018-12-25T18:28:45.268Z,4.85
2018-12-25T18:31:14.416Z,4.85
2018-12-25T18:33:42.416Z,4.84
2018-12-25T18:36:10.203Z,4.85
2018-12-25T18:38:38.683Z,4.71
2018-12-25T18:41:07.865Z,4.85
2018-12-25T18:43:35.630Z,4.85
2018-12-25T18:46:09.147Z,4.37
2018-12-25T18:48:37.206Z,3.21
2018-12-25T18:51:07.233Z,4.86
2018-12-25T18:53:35.710Z,4.88
2018-12-25T18:56:07.189Z,4.80
2018-12-25T18:58:34.921Z,4.88
2018-12-25T19:01:03.287Z,4.73
2018-12-25T19:03:31.130Z,4.89
2018-12-25T19:05:58.926Z,4.90
2018-12-25T19:08:28.425Z,4.91
2018-12-25T19:10:56.291Z,4.90
2018-12-25T19:13:25.865Z,4.20
2018-12-25T19:15:56.481Z,4.90
2018-12-25T19:18:24.429Z,4.77
2018-12-25T19:20:52.879Z,4.91
2018-12-25T19:23:20.962Z,4.74
2018-12-25T19:25:48.800Z,4.30
2018-12-25T19:28:17.283Z,4.89
2018-12-25T19:30:45.847Z,3.05
2018-12-25T19:33:17.124Z,4.90
2018-12-25T19:35:45.943Z,4.49
2018-12-25T19:38:16.696Z,4.88
2018-12-25T19:40:44.629Z,4.80
2018-12-25T19:43:13.096Z,4.86
2018-12-25T19:45:41.477Z,4.85
2018-12-25T19:48:09.297Z,4.86
2018-12-25T19:50:37.068Z,4.87
2018-12-25T19:53:05.504Z,4.87
2018-12-25T19:55:35.431Z,4.87
2018-12-25T19:58:05.425Z,4.87
2018-12-25T20:00:34.053Z,4.63
2018-12-25T20:03:42.273Z,4.70
2018-12-25T20:08:55.903Z,4.74
2018-12-25T20:11:40.049Z,4.84
2018-12-25T20:14:52.117Z,4.83
2018-12-25T20:17:41.121Z,4.84
2018-12-25T20:21:18.444Z,4.58
2018-12-25T20:23:55.093Z,4.83
2018-12-25T20:26:33.253Z,3.79
2018-12-25T20:31:23.241Z,4.83
2018-12-25T20:34:12.650Z,4.85
2018-12-25T20:37:01.170Z,4.83
2018-12-25T20:41:05.819Z,4.84
2018-12-25T20:46:57.066Z,4.83
2018-12-25T20:49:44.436Z,4.82
2018-12-25T20:52:52.712Z,4.82
2018-12-25T20:56:33.893Z,4.81
2018-12-25T21:01:15.679Z,4.82
2018-12-25T21:04:04.376Z,4.80
2018-12-25T21:07:46.792Z,4.71
2018-12-25T21:10:29.448Z,4.80
2018-12-25T21:13:17.758Z,4.82
2018-12-25T21:15:58.496Z,4.80
2018-12-25T21:20:44.060Z,4.81
2018-12-25T21:23:22.752Z,4.80
2018-12-25T21:26:02.349Z,4.79
2018-12-25T21:28:32.607Z,4.77
2018-12-25T21:31:01.190Z,4.78
2018-12-25T21:33:29.056Z,4.78
2018-12-25T21:35:57.844Z,4.77
2018-12-25T21:38:27.119Z,4.77
2018-12-25T21:40:58.230Z,3.28
2018-12-25T21:43:26.251Z,4.76
2018-12-25T21:45:55.179Z,4.75
2018-12-25T21:48:23.634Z,4.76
2018-12-25T21:50:51.644Z,4.29
2018-12-25T21:53:19.479Z,4.74
2018-12-25T21:55:48.606Z,4.75
2018-12-25T21:58:16.439Z,4.74
2018-12-25T22:00:46.795Z,4.74
2018-12-25T22:03:15.525Z,4.72
2018-12-25T22:05:46.065Z,4.71
2018-12-25T22:08:13.825Z,4.70
2018-12-25T22:10:45.826Z,4.69
2018-12-25T22:13:13.637Z,4.68
2018-12-25T22:15:43.453Z,4.33
2018-12-25T22:18:11.642Z,4.67
2018-12-25T22:20:40.291Z,4.67
2018-12-25T22:23:08.969Z,4.67
2018-12-25T22:25:38.100Z,4.45
2018-12-25T22:28:06.716Z,4.52
2018-12-25T22:30:34.763Z,4.64
2018-12-25T22:33:02.925Z,4.43
2018-12-25T22:35:30.746Z,4.53
2018-12-25T22:38:00.831Z,4.66
2018-12-25T22:40:29.153Z,4.65
2018-12-25T22:42:57.943Z,4.62
2018-12-25T22:45:26.339Z,4.61
2018-12-25T22:47:57.528Z,4.60
2018-12-25T22:50:27.611Z,4.59
2018-12-25T22:52:55.576Z,4.57
2018-12-25T22:55:24.951Z,4.56
2018-12-25T22:57:53.329Z,4.56
2018-12-25T23:00:30.147Z,3.93
2018-12-25T23:03:00.782Z,4.56
2018-12-25T23:05:32.669Z,4.56
2018-12-25T23:08:00.535Z,4.55
2018-12-25T23:10:29.992Z,4.55
2018-12-25T23:12:58.462Z,3.34
2018-12-25T23:15:26.524Z,4.54
2018-12-25T23:17:56.811Z,3.71
2018-12-25T23:20:28.773Z,4.53
2018-12-25T23:22:57.098Z,4.52
2018-12-25T23:25:25.604Z,4.51
2018-12-25T23:27:53.549Z,4.51
2018-12-25T23:30:22.504Z,4.52
2018-12-25T23:32:51.098Z,4.49
2018-12-25T23:35:19.205Z,3.78
2018-12-25T23:37:47.025Z,4.49
2018-12-25T23:40:15.410Z,4.45
2018-12-25T23:42:43.589Z,4.45
2018-12-25T23:45:11.885Z,3.08
2018-12-25T23:47:40.424Z,3.18
2018-12-25T23:50:08.328Z,4.38
2018-12-25T23:52:38.414Z,4.36
2018-12-25T23:55:07.002Z,4.32
2018-12-25T23:57:35.622Z,2.43
